Time;durP1;ratioP1;P1;durP2;ratioP2;P2;SDS_P1;SDS_P2;PMS_P1;PMS_P2;Temp;Humidity;BMP_temperature;BMP_pressure;BME280_temperature;BME280_humidity;BME280_pressure;Samples;Min_cycle;Max_cycle;Signal;HPM_P1;HPM_P2
2021/03/03 00:02:00;;;;;;;22.40;15.10;;;4.00;99.90;;;;;;5160834;27;20215;-64
2021/03/03 00:04:26;;;;;;;26.23;14.50;;;4.00;99.90;;;;;;5160941;27;20189;-63
2021/03/03 00:06:52;;;;;;;46.70;24.60;;;4.00;99.90;;;;;;5161661;27;20603;-63
2021/03/03 00:09:18;;;;;;;33.87;21.77;;;4.00;99.90;;;;;;5161064;27;20407;-63
2021/03/03 00:11:43;;;;;;;25.20;15.43;;;3.90;99.90;;;;;;5161171;27;20414;-65
2021/03/03 01:01:18;;;;;;;27.13;14.20;;;3.50;99.90;;;;;;5160683;27;20169;-62
2021/03/03 01:03:44;;;;;;;27.70;15.10;;;3.60;99.90;;;;;;5160691;27;20209;-62
2021/03/03 01:06:09;;;;;;;28.53;15.63;;;3.60;99.90;;;;;;5161204;27;20192;-62
2021/03/03 01:08:35;;;;;;;26.87;14.10;;;3.60;99.90;;;;;;5161022;27;20260;-62
2021/03/03 01:11:00;;;;;;;26.33;15.00;;;3.60;99.90;;;;;;5161503;27;20179;-61
2021/03/03 01:13:26;;;;;;;24.93;14.13;;;3.50;99.90;;;;;;5160306;27;20566;-62
2021/03/03 01:15:52;;;;;;;25.73;16.20;;;3.50;99.90;;;;;;5160642;27;20233;-64
2021/03/03 01:18:17;;;;;;;24.37;15.07;;;3.40;99.90;;;;;;5159692;27;20175;-64
2021/03/03 01:20:43;;;;;;;28.77;16.47;;;3.60;99.90;;;;;;5159783;27;20178;-63
2021/03/03 01:23:08;;;;;;;26.70;16.03;;;3.60;99.90;;;;;;5158748;27;20268;-65
2021/03/03 01:25:35;;;;;;;25.07;15.27;;;3.60;99.90;;;;;;5159626;27;20178;-63
2021/03/03 01:28:00;;;;;;;24.45;15.15;;;3.50;99.90;;;;;;5160336;27;20174;-69
2021/03/03 01:30:26;;;;;;;29.00;15.43;;;3.50;99.90;;;;;;5159643;27;20182;-62
2021/03/03 01:32:51;;;;;;;29.07;15.57;;;3.40;99.90;;;;;;5159314;27;20218;-62
2021/03/03 01:35:17;;;;;;;26.30;17.47;;;3.50;99.90;;;;;;5158941;27;20513;-62
2021/03/03 01:37:42;;;;;;;27.93;15.13;;;3.60;99.90;;;;;;5159416;27;20166;-62
2021/03/03 01:40:09;;;;;;;25.27;14.83;;;3.40;99.90;;;;;;5159993;27;20257;-63
2021/03/03 01:42:34;;;;;;;30.35;17.58;;;3.40;99.90;;;;;;5159659;27;20274;-63
2021/03/03 01:45:00;;;;;;;30.13;16.13;;;3.40;99.90;;;;;;5159297;27;20595;-63
2021/03/03 01:47:26;;;;;;;27.80;15.77;;;3.40;99.90;;;;;;5159134;27;20174;-62
2021/03/03 01:49:51;;;;;;;27.70;15.67;;;3.40;99.90;;;;;;5158251;27;20169;-63
2021/03/03 01:52:17;;;;;;;26.53;13.90;;;3.40;99.90;;;;;;5159103;27;20178;-63
2021/03/03 01:54:44;;;;;;;27.27;15.68;;;3.40;99.90;;;;;;5158630;27;20184;-63
2021/03/03 01:57:11;;;;;;;26.77;15.23;;;3.40;99.90;;;;;;5158566;27;20201;-63
2021/03/03 01:59:37;;;;;;;28.73;15.50;;;3.50;99.90;;;;;;5158471;27;20180;-64
2021/03/03 02:02:03;;;;;;;29.87;16.63;;;3.50;99.90;;;;;;5158036;27;20202;-63
2021/03/03 02:04:29;;;;;;;30.50;16.05;;;3.60;99.90;;;;;;5157712;27;20674;-63
2021/03/03 02:06:55;;;;;;;25.10;14.30;;;3.50;99.90;;;;;;5158332;27;20249;-63
2021/03/03 02:09:40;;;;;;;26.40;14.60;;;3.30;99.90;;;;;;5158738;27;20257;-64
2021/03/03 02:12:28;;;;;;;28.85;14.02;;;3.20;99.90;;;;;;5158763;27;20206;-64
2021/03/03 02:14:56;;;;;;;26.05;14.02;;;3.20;99.90;;;;;;5158325;27;20186;-63
2021/03/03 02:17:27;;;;;;;24.90;16.17;;;3.30;99.90;;;;;;5157985;27;20184;-63
2021/03/03 02:19:59;;;;;;;24.80;13.95;;;3.20;99.90;;;;;;5158479;27;20215;-63
2021/03/03 02:22:35;;;;;;;29.30;14.80;;;3.20;99.90;;;;;;5157837;27;20207;-63
2021/03/03 02:25:50;;;;;;;29.58;15.45;;;3.20;99.90;;;;;;5158056;27;20169;-63
2021/03/03 02:28:20;;;;;;;28.80;14.65;;;3.20;99.90;;;;;;5140533;27;20641;-63
2021/03/03 02:30:46;;;;;;;27.08;15.25;;;3.20;99.90;;;;;;5158144;27;20219;-63
2021/03/03 02:33:15;;;;;;;29.53;16.40;;;3.20;99.90;;;;;;5158117;27;20178;-64
2021/03/03 02:35:44;;;;;;;35.35;16.63;;;3.10;99.90;;;;;;5158554;27;20181;-63
2021/03/03 02:38:10;;;;;;;27.30;15.00;;;3.00;99.90;;;;;;5158499;27;20606;-62
2021/03/03 02:40:39;;;;;;;29.40;14.60;;;2.90;99.90;;;;;;5158285;27;20178;-62
2021/03/03 02:43:05;;;;;;;30.60;16.20;;;2.90;99.90;;;;;;5158199;27;20193;-63
2021/03/03 02:45:31;;;;;;;25.40;13.52;;;2.90;99.90;;;;;;5158358;27;20177;-61
2021/03/03 02:47:58;;;;;;;29.43;15.63;;;2.90;99.90;;;;;;5158684;27;20246;-62
2021/03/03 02:50:24;;;;;;;29.15;15.60;;;2.80;99.90;;;;;;5158608;27;20182;-62
2021/03/03 02:52:54;;;;;;;29.33;16.40;;;2.70;99.90;;;;;;5158437;27;20311;-62
2021/03/03 02:55:27;;;;;;;31.40;15.45;;;2.70;99.90;;;;;;5157621;27;20431;-61
2021/03/03 02:57:54;;;;;;;28.50;14.68;;;2.80;99.90;;;;;;5156959;27;20637;-61
2021/03/03 03:00:26;;;;;;;26.70;14.95;;;2.80;99.90;;;;;;5158257;27;20670;-63
2021/03/03 03:02:57;;;;;;;29.88;14.75;;;2.80;99.90;;;;;;5157910;27;20214;-64
2021/03/03 03:05:26;;;;;;;27.10;14.60;;;2.70;99.90;;;;;;5158178;27;20258;-64
2021/03/03 03:07:55;;;;;;;27.13;15.05;;;2.60;99.90;;;;;;5157273;27;20250;-64
2021/03/03 03:10:23;;;;;;;29.75;14.07;;;2.60;99.90;;;;;;5158189;27;20188;-66
2021/03/03 03:12:54;;;;;;;29.55;15.45;;;2.70;99.90;;;;;;5157924;27;20170;-65
2021/03/03 03:15:24;;;;;;;38.47;15.48;;;2.50;99.90;;;;;;5157564;27;20257;-66
2021/03/03 03:17:58;;;;;;;27.13;15.15;;;2.50;99.90;;;;;;5156752;27;20170;-66
2021/03/03 03:20:25;;;;;;;25.67;15.27;;;2.50;99.90;;;;;;5157553;27;20178;-67
2021/03/03 03:22:51;;;;;;;22.85;13.63;;;2.50;99.90;;;;;;5157221;27;20634;-68
2021/03/03 03:25:18;;;;;;;23.52;13.25;;;2.40;99.90;;;;;;5157185;27;20246;-67
2021/03/03 03:27:44;;;;;;;22.55;12.45;;;2.40;99.90;;;;;;5157169;27;20204;-66
2021/03/03 03:30:12;;;;;;;23.40;12.60;;;2.20;99.90;;;;;;5156678;27;20174;-70
2021/03/03 03:32:39;;;;;;;31.10;13.48;;;2.00;99.90;;;;;;5157970;27;20178;-65
2021/03/03 03:35:06;;;;;;;26.92;13.38;;;1.90;99.90;;;;;;5157155;27;20513;-65
2021/03/03 03:37:32;;;;;;;18.13;11.13;;;1.90;99.90;;;;;;5156989;27;20268;-66
2021/03/03 03:40:00;;;;;;;25.38;12.93;;;2.10;99.90;;;;;;5157429;27;20202;-62
2021/03/03 03:42:28;;;;;;;23.02;11.65;;;2.10;99.90;;;;;;5157809;27;20250;-63
2021/03/03 03:44:57;;;;;;;35.03;13.07;;;2.00;99.90;;;;;;5157264;27;20178;-64
2021/03/03 03:47:23;;;;;;;26.60;12.32;;;1.80;99.90;;;;;;5157849;27;20197;-64
2021/03/03 03:49:50;;;;;;;25.30;12.93;;;1.80;99.90;;;;;;5157552;27;20540;-64
2021/03/03 03:52:20;;;;;;;20.65;12.20;;;1.70;99.90;;;;;;5158142;27;20216;-69
2021/03/03 03:54:51;;;;;;;27.15;13.45;;;1.70;99.90;;;;;;5157784;27;20599;-64
2021/03/03 03:57:17;;;;;;;19.55;11.50;;;1.70;99.90;;;;;;5157507;27;20181;-64
2021/03/03 03:59:43;;;;;;;26.92;14.43;;;1.70;99.90;;;;;;5157512;27;20265;-63
2021/03/03 04:02:09;;;;;;;24.37;12.80;;;1.70;99.90;;;;;;5157794;27;20229;-63
2021/03/03 04:04:34;;;;;;;21.23;13.05;;;1.70;99.90;;;;;;5156964;27;20189;-63
2021/03/03 04:07:05;;;;;;;21.50;13.27;;;1.70;99.90;;;;;;5157469;27;20162;-62
2021/03/03 04:09:32;;;;;;;20.60;11.73;;;1.70;99.90;;;;;;5156468;27;20217;-64
2021/03/03 04:11:58;;;;;;;22.40;11.43;;;1.70;99.90;;;;;;5157168;27;20477;-64
2021/03/03 04:14:24;;;;;;;21.02;12.90;;;1.80;99.90;;;;;;5157220;27;20170;-64
2021/03/03 04:16:50;;;;;;;25.88;12.10;;;1.80;99.90;;;;;;5157303;27;20257;-64
2021/03/03 04:19:16;;;;;;;25.03;13.63;;;1.80;99.90;;;;;;5157602;27;20202;-63
2021/03/03 04:21:41;;;;;;;22.00;12.73;;;1.60;99.90;;;;;;5157387;27;20265;-64
2021/03/03 04:24:08;;;;;;;22.00;13.37;;;1.50;99.90;;;;;;5156837;27;20216;-63
2021/03/03 04:26:33;;;;;;;24.42;13.52;;;1.60;99.90;;;;;;5157178;27;20261;-64
2021/03/03 04:28:59;;;;;;;22.30;11.77;;;1.60;99.90;;;;;;5159360;27;20193;-63
2021/03/03 04:31:24;;;;;;;21.37;12.87;;;1.60;99.90;;;;;;5160848;27;20185;-64
2021/03/03 04:33:50;;;;;;;21.37;13.07;;;1.50;99.90;;;;;;5160593;27;20178;-63
2021/03/03 04:36:16;;;;;;;32.07;13.63;;;1.70;99.90;;;;;;5160996;27;20531;-62
2021/03/03 04:38:41;;;;;;;24.33;13.50;;;1.60;99.90;;;;;;5160926;27;20257;-62
2021/03/03 04:41:07;;;;;;;24.60;13.77;;;1.50;99.90;;;;;;5160801;27;20495;-63
2021/03/03 04:43:32;;;;;;;27.23;13.73;;;1.40;99.90;;;;;;5160866;27;20200;-62
2021/03/03 04:45:58;;;;;;;27.47;12.90;;;1.40;99.90;;;;;;5161261;27;20181;-63
2021/03/03 04:48:24;;;;;;;26.53;14.77;;;1.20;99.90;;;;;;5160997;27;20174;-65
2021/03/03 04:50:49;;;;;;;26.23;13.73;;;1.10;99.90;;;;;;5160800;27;20205;-63
2021/03/03 04:53:15;;;;;;;25.37;11.40;;;1.30;99.90;;;;;;5160375;27;20183;-68
2021/03/03 04:55:41;;;;;;;20.87;12.23;;;1.30;99.90;;;;;;5159566;27;20185;-62
2021/03/03 04:58:09;;;;;;;21.07;12.20;;;1.20;99.90;;;;;;5160898;27;20174;-63
2021/03/03 05:00:35;;;;;;;21.55;11.88;;;1.00;99.90;;;;;;5160671;27;20174;-63
2021/03/03 05:03:00;;;;;;;18.10;10.43;;;1.00;99.90;;;;;;5160842;27;20202;-63
2021/03/03 05:05:26;;;;;;;22.80;11.70;;;1.00;99.90;;;;;;5160643;27;20315;-63
2021/03/03 05:07:51;;;;;;;19.80;10.13;;;1.00;99.90;;;;;;5160599;27;20181;-64
2021/03/03 05:10:17;;;;;;;18.60;12.03;;;1.00;99.90;;;;;;5160132;27;20654;-62
2021/03/03 05:12:44;;;;;;;19.93;12.33;;;1.10;99.90;;;;;;5160055;27;20233;-62
2021/03/03 05:15:10;;;;;;;17.13;10.63;;;1.10;99.90;;;;;;5158466;27;20188;-62
2021/03/03 05:17:36;;;;;;;19.10;11.60;;;1.10;99.90;;;;;;5160532;27;20636;-62
2021/03/03 05:20:01;;;;;;;24.57;13.73;;;0.90;99.90;;;;;;5160590;27;20261;-63
2021/03/03 05:22:30;;;;;;;18.60;11.83;;;0.80;99.90;;;;;;5159491;27;20542;-64
2021/03/03 05:24:56;;;;;;;14.18;10.38;;;0.80;99.90;;;;;;5160514;27;20180;-61
2021/03/03 05:27:21;;;;;;;17.50;10.67;;;0.80;99.90;;;;;;5159947;27;20170;-60
2021/03/03 05:29:47;;;;;;;21.93;11.33;;;0.90;99.90;;;;;;5159984;27;20212;-64
2021/03/03 05:32:12;;;;;;;18.73;11.10;;;0.80;99.90;;;;;;5159093;27;20189;-62
2021/03/03 05:34:38;;;;;;;22.70;12.73;;;0.90;99.90;;;;;;5159394;27;20184;-62
2021/03/03 05:37:04;;;;;;;20.80;11.83;;;0.90;99.90;;;;;;5160139;27;20185;-63
2021/03/03 05:39:29;;;;;;;20.03;11.67;;;1.00;99.90;;;;;;5159431;27;20178;-64
2021/03/03 05:41:59;;;;;;;15.33;10.27;;;0.90;99.90;;;;;;5159319;27;20178;-64
2021/03/03 05:44:26;;;;;;;25.88;13.23;;;1.00;99.90;;;;;;5160034;27;20257;-64
2021/03/03 05:46:56;;;;;;;20.83;11.73;;;0.90;99.90;;;;;;5139734;27;20631;-70
2021/03/03 05:49:26;;;;;;;18.23;11.05;;;1.00;99.90;;;;;;5135458;27;20183;-64
2021/03/03 05:51:54;;;;;;;22.75;13.07;;;0.90;99.90;;;;;;5136784;27;20203;-64
2021/03/03 05:54:23;;;;;;;17.25;10.77;;;1.00;99.90;;;;;;5137208;27;20186;-64
2021/03/03 05:56:49;;;;;;;17.48;11.20;;;0.60;99.90;;;;;;5137554;27;20265;-64
2021/03/03 05:59:16;;;;;;;18.80;10.35;;;0.60;99.90;;;;;;5138482;27;20630;-62
2021/03/03 06:01:44;;;;;;;15.27;10.18;;;0.60;99.90;;;;;;5138687;27;20175;-66
2021/03/03 06:04:11;;;;;;;16.27;10.77;;;0.60;99.90;;;;;;5137107;27;20210;-67
2021/03/03 06:06:41;;;;;;;12.70;9.30;;;0.60;99.90;;;;;;5138635;27;20163;-66
2021/03/03 06:09:07;;;;;;;21.40;10.27;;;0.60;99.90;;;;;;5138468;27;20178;-66
2021/03/03 06:11:33;;;;;;;15.23;10.43;;;0.60;99.90;;;;;;5138342;27;20175;-66
2021/03/03 06:13:59;;;;;;;18.27;11.60;;;0.70;99.90;;;;;;5137526;27;20670;-64
2021/03/03 06:16:25;;;;;;;17.52;9.82;;;0.50;97.40;;;;;;5138569;27;20174;-64
2021/03/03 06:18:54;;;;;;;16.50;10.03;;;0.50;97.40;;;;;;5139090;27;20187;-64
2021/03/03 06:21:28;;;;;;;15.93;10.40;;;0.50;94.20;;;;;;5139069;27;20481;-66
2021/03/03 06:24:05;;;;;;;19.08;11.43;;;0.50;99.90;;;;;;5137863;27;20266;-67
2021/03/03 06:26:31;;;;;;;14.90;10.07;;;0.60;99.90;;;;;;5138312;27;20274;-66
2021/03/03 06:28:57;;;;;;;18.17;10.60;;;0.70;99.90;;;;;;5137693;27;20235;-64
2021/03/03 06:31:29;;;;;;;16.77;9.50;;;0.70;99.90;;;;;;5138146;27;20171;-64
2021/03/03 06:34:10;;;;;;;16.75;10.82;;;0.70;99.90;;;;;;5137894;27;20405;-64
2021/03/03 06:36:36;;;;;;;16.45;10.23;;;0.80;99.90;;;;;;5137994;27;20619;-64
2021/03/03 06:39:32;;;;;;;13.43;9.82;;;0.80;99.90;;;;;;5138058;27;20182;-64
2021/03/03 06:42:00;;;;;;;17.13;10.23;;;0.80;96.80;;;;;;5133441;27;20184;-64
2021/03/03 06:44:48;;;;;;;14.48;8.90;;;0.90;93.00;;;;;;5134727;27;20193;-64
2021/03/03 06:47:13;;;;;;;13.85;9.68;;;1.20;99.90;;;;;;5136972;27;20171;-64
2021/03/03 06:49:39;;;;;;;18.30;11.57;;;1.40;97.30;;;;;;5129774;27;20235;-64
2021/03/03 06:52:06;;;;;;;16.63;11.90;;;1.50;88.10;;;;;;5133264;27;20178;-64
2021/03/03 06:54:31;;;;;;;16.25;9.82;;;1.40;49.30;;;;;;5136426;27;20875;-64
2021/03/03 06:56:58;;;;;;;15.50;10.97;;;1.40;24.30;;;;;;5134377;27;20171;-64
2021/03/03 06:59:25;;;;;;;18.77;10.80;;;1.50;15.10;;;;;;5130071;27;20753;-63
2021/03/03 07:02:08;;;;;;;16.73;11.70;;;1.50;5.00;;;;;;5123609;27;20186;-64
2021/03/03 07:04:36;;;;;;;16.45;10.40;;;1.50;1.00;;;;;;5129791;27;20194;-63
2021/03/03 07:07:09;;;;;;;15.95;10.68;;;1.40;1.00;;;;;;5127578;27;20193;-63
2021/03/03 07:09:45;;;;;;;17.13;10.57;;;1.60;1.00;;;;;;5123314;27;20246;-63
2021/03/03 07:12:15;;;;;;;22.13;12.57;;;1.50;1.00;;;;;;5133420;27;20183;-63
2021/03/03 07:14:42;;;;;;;21.13;13.18;;;1.50;1.00;;;;;;5132509;27;20271;-66
2021/03/03 07:17:09;;;;;;;24.67;12.73;;;1.60;1.00;;;;;;5127290;27;20182;-65
2021/03/03 07:19:37;;;;;;;21.65;12.68;;;1.70;2.20;;;;;;5137090;27;20187;-65
2021/03/03 07:22:07;;;;;;;18.70;12.27;;;1.90;12.40;;;;;;5137392;27;20205;-66
2021/03/03 07:24:34;;;;;;;40.75;20.50;;;2.10;10.80;;;;;;5137087;27;20166;-64
2021/03/03 07:27:02;;;;;;;24.45;14.38;;;2.10;1.00;;;;;;5134733;27;20615;-66
2021/03/03 07:29:29;;;;;;;27.70;15.85;;;2.20;1.00;;;;;;5127354;27;20646;-64
2021/03/03 07:31:55;;;;;;;31.65;16.67;;;2.30;1.00;;;;;;5130743;27;20175;-65
2021/03/03 07:34:21;;;;;;;23.20;14.70;;;2.30;1.00;;;;;;5135506;27;20222;-61
2021/03/03 07:36:49;;;;;;;25.50;14.50;;;2.40;1.00;;;;;;5136126;27;20631;-60
2021/03/03 07:39:18;;;;;;;32.70;17.48;;;2.50;1.00;;;;;;5135717;28;20423;-63
2021/03/03 07:41:45;;;;;;;27.23;13.57;;;2.60;1.00;;;;;;5136546;27;20186;-62
2021/03/03 07:44:13;;;;;;;26.88;14.80;;;2.60;1.00;;;;;;5134820;28;20216;-62
2021/03/03 07:46:40;;;;;;;29.27;16.35;;;2.60;1.00;;;;;;5136982;27;20231;-63
2021/03/03 07:49:08;;;;;;;23.65;16.35;;;3.00;1.00;;;;;;5133183;28;20189;-65
2021/03/03 07:51:35;;;;;;;26.33;14.95;;;3.20;1.00;;;;;;5136737;27;20178;-62
2021/03/03 07:54:01;;;;;;;29.90;17.77;;;3.30;1.00;;;;;;5135964;28;20182;-64
2021/03/03 07:56:27;;;;;;;47.43;24.60;;;3.40;1.00;;;;;;5136327;28;20186;-63
2021/03/03 07:58:53;;;;;;;40.42;22.13;;;3.50;1.00;;;;;;5136179;27;20270;-65
2021/03/03 08:01:19;;;;;;;52.35;26.35;;;3.70;1.00;;;;;;5136283;27;20193;-62
2021/03/03 08:03:48;;;;;;;34.58;18.90;;;3.50;1.00;;;;;;5137171;27;20648;-66
2021/03/03 08:06:27;;;;;;;34.70;18.88;;;3.80;1.00;;;;;;5139838;27;20202;-64
2021/03/03 08:09:05;;;;;;;30.50;16.55;;;3.80;1.00;;;;;;5129547;27;20566;-63
2021/03/03 08:11:31;;;;;;;44.95;28.02;;;3.80;1.00;;;;;;5132774;27;20170;-62
2021/03/03 08:13:57;;;;;;;34.00;20.25;;;4.00;1.00;;;;;;5133061;27;20610;-62
2021/03/03 08:16:22;;;;;;;39.30;20.20;;;4.10;1.00;;;;;;5139998;27;20193;-62
2021/03/03 08:18:48;;;;;;;28.53;17.53;;;4.40;1.00;;;;;;5140153;27;20186;-62
2021/03/03 08:21:16;;;;;;;28.83;17.20;;;4.40;1.00;;;;;;5129124;27;20183;-62
2021/03/03 08:23:44;;;;;;;34.47;19.20;;;4.70;1.00;;;;;;5138936;27;20235;-62
2021/03/03 08:26:16;;;;;;;35.65;18.55;;;4.80;99.90;;;;;;5138267;27;20646;-63
2021/03/03 08:28:42;;;;;;;26.27;17.00;;;4.90;99.90;;;;;;5138026;27;20237;-62
2021/03/03 08:31:14;;;;;;;81.10;37.22;;;4.90;99.90;;;;;;5136178;27;20186;-63
2021/03/03 08:33:40;;;;;;;45.33;24.63;;;4.90;49.40;;;;;;5133836;27;20187;-63
2021/03/03 08:36:08;;;;;;;61.88;32.72;;;5.10;42.00;;;;;;5138831;27;20234;-63
2021/03/03 08:38:34;;;;;;;40.30;17.52;;;5.50;1.00;;;;;;5135564;27;20187;-63
2021/03/03 08:41:15;;;;;;;22.70;15.27;;;5.70;99.90;;;;;;5120479;27;20198;-63
2021/03/03 08:43:48;;;;;;;27.67;16.45;;;5.70;99.90;;;;;;5130412;27;20199;-63
2021/03/03 08:46:20;;;;;;;23.45;15.75;;;5.70;1.00;;;;;;5138225;27;20202;-65
2021/03/03 08:48:52;;;;;;;27.15;15.63;;;5.90;11.80;;;;;;5138088;27;20258;-63
2021/03/03 08:51:25;;;;;;;23.30;14.98;;;5.80;99.90;;;;;;5138279;27;20598;-61
2021/03/03 08:53:54;;;;;;;24.45;16.75;;;5.80;9.50;;;;;;5136551;27;20221;-61
2021/03/03 08:56:46;;;;;;;26.10;15.90;;;5.90;1.00;;;;;;5138067;27;20189;-61
2021/03/03 08:59:29;;;;;;;20.83;14.10;;;5.90;99.90;;;;;;5138366;27;20257;-62
2021/03/03 09:02:09;;;;;;;23.00;13.80;;;5.90;1.00;;;;;;5138136;27;20220;-63
2021/03/03 09:04:42;;;;;;;22.58;13.40;;;5.90;1.00;;;;;;5137074;27;20192;-67
2021/03/03 09:07:22;;;;;;;21.05;12.85;;;6.00;1.00;;;;;;5134799;27;20184;-63
2021/03/03 09:09:49;;;;;;;22.90;13.77;;;5.90;1.00;;;;;;5132082;27;20233;-63
2021/03/03 09:12:21;;;;;;;19.25;12.98;;;6.00;99.90;;;;;;5136070;27;20187;-64
2021/03/03 09:14:49;;;;;;;26.83;14.45;;;6.20;1.00;;;;;;5136308;27;20171;-65
2021/03/03 09:17:26;;;;;;;19.40;12.15;;;6.00;99.90;;;;;;5136887;27;20215;-64
2021/03/03 09:20:00;;;;;;;20.13;13.85;;;6.20;99.90;;;;;;5136854;27;20172;-63
2021/03/03 09:22:39;;;;;;;21.52;14.23;;;6.50;13.00;;;;;;5136622;27;20220;-65
2021/03/03 09:25:12;;;;;;;21.20;13.85;;;6.60;1.00;;;;;;5136634;27;20192;-63
2021/03/03 09:27:46;;;;;;;24.08;15.30;;;6.70;99.90;;;;;;5131328;27;20183;-67
2021/03/03 09:30:12;;;;;;;20.88;14.70;;;6.70;99.90;;;;;;5135640;27;20616;-68
2021/03/03 09:32:38;;;;;;;18.33;13.45;;;6.80;99.90;;;;;;5130811;27;20182;-65
2021/03/03 09:35:06;;;;;;;18.20;12.60;;;7.10;26.00;;;;;;5133130;27;20185;-63
2021/03/03 09:37:44;;;;;;;24.92;14.45;;;7.20;1.00;;;;;;5135503;27;20213;-66
2021/03/03 09:40:12;;;;;;;22.65;13.52;;;7.30;99.90;;;;;;5130653;27;20188;-67
2021/03/03 09:42:44;;;;;;;21.80;13.77;;;7.60;99.90;;;;;;5136728;27;20531;-67
2021/03/03 09:45:15;;;;;;;24.17;14.70;;;7.60;1.00;;;;;;5135906;27;20192;-66
2021/03/03 09:47:41;;;;;;;22.00;13.98;;;7.60;1.00;;;;;;5134157;27;20620;-65
2021/03/03 09:50:08;;;;;;;19.20;14.20;;;7.90;1.00;;;;;;5136251;27;20181;-65
2021/03/03 09:52:43;;;;;;;21.42;14.75;;;8.10;99.90;;;;;;5129829;27;20189;-66
2021/03/03 09:55:15;;;;;;;20.17;13.40;;;8.20;1.00;;;;;;5136252;27;20680;-66
2021/03/03 09:57:42;;;;;;;18.23;12.43;;;8.20;99.90;;;;;;5135949;27;20193;-66
2021/03/03 10:00:14;;;;;;;18.00;13.85;;;8.40;99.90;;;;;;5135843;27;20258;-67
2021/03/03 10:02:46;;;;;;;23.55;14.00;;;8.70;1.00;;;;;;5136032;27;20676;-67
2021/03/03 10:05:33;;;;;;;20.00;13.07;;;8.70;1.00;;;;;;5135691;27;20205;-65
2021/03/03 10:08:01;;;;;;;21.83;13.20;;;8.80;1.00;;;;;;5115227;28;20174;-64
2021/03/03 10:10:29;;;;;;;23.27;13.10;;;8.90;1.00;;;;;;5119396;27;20211;-64
2021/03/03 10:12:58;;;;;;;21.38;14.18;;;9.00;1.00;;;;;;5135583;27;20194;-66
2021/03/03 10:15:30;;;;;;;22.83;13.30;;;9.30;1.00;;;;;;5135848;27;20516;-67
2021/03/03 10:17:57;;;;;;;17.45;11.90;;;9.60;99.90;;;;;;5135326;27;20198;-66
2021/03/03 10:20:32;;;;;;;20.83;13.00;;;9.80;41.70;;;;;;5136794;27;20639;-64
2021/03/03 10:23:03;;;;;;;19.75;14.43;;;10.00;1.00;;;;;;5128097;27;20225;-63
2021/03/03 10:25:33;;;;;;;20.58;13.60;;;10.20;1.00;;;;;;5134094;27;20182;-66
2021/03/03 10:28:05;;;;;;;21.45;14.50;;;10.20;1.00;;;;;;5125705;27;20294;-62
2021/03/03 10:30:32;;;;;;;19.33;12.90;;;10.30;1.00;;;;;;5135938;27;20212;-63
2021/03/03 10:32:58;;;;;;;20.23;13.85;;;10.40;1.00;;;;;;5132446;27;20211;-62
2021/03/03 10:35:26;;;;;;;18.75;14.10;;;10.60;1.00;;;;;;5133975;27;20218;-62
2021/03/03 10:37:52;;;;;;;16.33;12.52;;;10.50;1.00;;;;;;5128200;27;20561;-62
2021/03/03 10:40:19;;;;;;;19.20;13.17;;;10.50;99.90;;;;;;5132063;27;20190;-62
2021/03/03 10:42:46;;;;;;;21.80;13.70;;;10.50;1.00;;;;;;5133088;27;21003;-66
2021/03/03 10:45:23;;;;;;;17.20;13.40;;;10.80;1.00;;;;;;5132453;27;20262;-67
2021/03/03 10:47:49;;;;;;;19.15;13.23;;;11.00;1.00;;;;;;5134893;27;20657;-67
2021/03/03 10:50:18;;;;;;;19.92;14.75;;;11.30;99.90;;;;;;5125853;27;20246;-67
2021/03/03 10:53:16;;;;;;;18.95;13.10;;;11.20;99.90;;;;;;5135084;27;20183;-67
2021/03/03 10:55:42;;;;;;;19.35;14.45;;;11.70;99.90;;;;;;5108288;27;20190;-67
2021/03/03 10:58:13;;;;;;;20.73;13.40;;;11.70;27.70;;;;;;5114173;28;20185;-67
2021/03/03 11:00:58;;;;;;;26.35;16.15;;;11.60;16.50;;;;;;5125383;27;20443;-67
2021/03/03 11:03:25;;;;;;;20.85;14.50;;;11.10;99.90;;;;;;5127893;27;20643;-66
2021/03/03 11:05:59;;;;;;;21.85;14.55;;;10.60;1.00;;;;;;5129978;27;20219;-66
2021/03/03 11:08:26;;;;;;;21.27;13.45;;;11.00;1.00;;;;;;5114236;28;20205;-66
2021/03/03 11:11:05;;;;;;;17.67;12.05;;;11.10;1.00;;;;;;5114021;28;20507;-66
2021/03/03 11:13:32;;;;;;;19.48;14.85;;;11.60;99.90;;;;;;5113057;28;20206;-67
2021/03/03 11:15:58;;;;;;;19.60;13.70;;;11.70;99.90;;;;;;5113985;28;20702;-67
2021/03/03 11:18:23;;;;;;;24.90;14.30;;;12.00;99.90;;;;;;5114104;28;20245;-68
2021/03/03 11:20:49;;;;;;;19.20;13.77;;;11.90;53.20;;;;;;5126241;27;20189;-67
2021/03/03 11:23:15;;;;;;;21.03;14.00;;;12.00;57.30;;;;;;5122699;27;20202;-68
2021/03/03 11:25:41;;;;;;;21.20;13.65;;;12.10;26.30;;;;;;5128524;27;20247;-68
2021/03/03 11:28:06;;;;;;;17.13;13.90;;;12.30;1.00;;;;;;5132662;27;20183;-67
2021/03/03 11:30:32;;;;;;;19.47;13.70;;;12.10;37.00;;;;;;5133949;27;20228;-67
2021/03/03 11:32:58;;;;;;;16.20;13.33;;;12.20;99.90;;;;;;5135200;27;20178;-66
2021/03/03 11:35:23;;;;;;;20.90;14.00;;;12.40;1.00;;;;;;5129302;27;20172;-65
2021/03/03 11:37:49;;;;;;;20.23;14.90;;;12.40;1.00;;;;;;5133455;27;20656;-64
2021/03/03 11:40:15;;;;;;;22.43;14.37;;;12.30;1.00;;;;;;5134639;28;20163;-66
2021/03/03 11:42:41;;;;;;;26.48;15.27;;;12.50;1.00;;;;;;5133276;28;20251;-66
2021/03/03 11:45:08;;;;;;;22.52;14.18;;;12.90;1.00;;;;;;5133597;28;20250;-65
2021/03/03 11:47:34;;;;;;;21.40;14.00;;;13.40;99.90;;;;;;5134065;27;20178;-63
2021/03/03 11:49:59;;;;;;;20.97;14.10;;;13.50;99.90;;;;;;5134190;28;20171;-63
2021/03/03 11:52:26;;;;;;;21.83;14.43;;;13.70;99.90;;;;;;5133915;27;20190;-66
2021/03/03 11:54:51;;;;;;;22.80;12.35;;;13.70;99.90;;;;;;5132336;27;20444;-65
2021/03/03 11:57:18;;;;;;;20.93;14.13;;;14.00;99.90;;;;;;5126920;28;20185;-65
2021/03/03 11:59:43;;;;;;;21.42;11.98;;;14.20;79.30;;;;;;5118543;27;20429;-64
2021/03/03 12:02:09;;;;;;;22.27;13.07;;;14.30;10.00;;;;;;5113717;28;20241;-65
2021/03/03 12:04:35;;;;;;;22.50;13.87;;;14.50;3.50;;;;;;5127856;28;20194;-64
2021/03/03 12:07:00;;;;;;;20.43;12.40;;;14.60;1.00;;;;;;5131581;28;20458;-64
2021/03/03 12:09:26;;;;;;;18.73;12.40;;;14.60;1.00;;;;;;5134153;28;20199;-67
2021/03/03 12:11:51;;;;;;;19.67;13.43;;;14.70;1.00;;;;;;5124824;28;20189;-64
2021/03/03 12:14:17;;;;;;;21.30;12.87;;;14.80;1.00;;;;;;5132200;28;20200;-64
2021/03/03 12:16:45;;;;;;;21.93;12.80;;;14.80;1.00;;;;;;5127518;27;20193;-63
2021/03/03 12:19:11;;;;;;;22.30;14.38;;;14.90;1.00;;;;;;5134282;27;20183;-63
2021/03/03 12:21:36;;;;;;;22.30;15.30;;;15.00;1.00;;;;;;5131755;27;20609;-63
2021/03/03 12:24:02;;;;;;;27.40;15.33;;;15.20;1.00;;;;;;5116745;28;20204;-66
2021/03/03 12:26:27;;;;;;;21.50;14.07;;;15.40;1.00;;;;;;5132821;28;20185;-66
2021/03/03 12:28:53;;;;;;;23.20;14.33;;;15.40;1.00;;;;;;5133813;28;20185;-65
2021/03/03 12:31:18;;;;;;;22.03;14.77;;;15.60;1.00;;;;;;5134064;28;20182;-64
2021/03/03 12:33:44;;;;;;;25.40;16.47;;;15.70;1.00;;;;;;5124458;27;20182;-63
2021/03/03 12:36:10;;;;;;;28.43;16.60;;;15.90;1.00;;;;;;5131866;28;20264;-63
2021/03/03 12:38:35;;;;;;;28.47;17.40;;;15.80;1.00;;;;;;5133649;28;20176;-63
2021/03/03 12:41:02;;;;;;;25.80;16.23;;;16.00;1.00;;;;;;5130441;28;20886;-64
2021/03/03 12:43:29;;;;;;;22.70;13.80;;;16.10;1.00;;;;;;5112740;28;20680;-64
2021/03/03 12:45:55;;;;;;;22.52;15.45;;;16.10;1.00;;;;;;5113454;28;20179;-65
2021/03/03 12:48:20;;;;;;;26.60;15.20;;;16.30;1.00;;;;;;5113418;28;20431;-67
2021/03/03 12:50:46;;;;;;;27.53;15.87;;;16.00;1.00;;;;;;5131973;27;20169;-68
2021/03/03 12:53:12;;;;;;;25.50;14.50;;;15.80;1.00;;;;;;5134291;27;20189;-68
2021/03/03 12:55:38;;;;;;;22.40;13.25;;;16.00;1.00;;;;;;5136746;27;20181;-64
2021/03/03 12:58:04;;;;;;;21.43;13.83;;;15.80;1.00;;;;;;5127918;27;20185;-66
2021/03/03 13:00:29;;;;;;;23.50;14.97;;;15.70;1.00;;;;;;5130379;27;20197;-64
2021/03/03 13:02:56;;;;;;;30.57;15.50;;;15.90;1.00;;;;;;5132278;27;20208;-65
2021/03/03 13:05:21;;;;;;;24.60;16.00;;;16.10;1.00;;;;;;5136559;27;20653;-64
2021/03/03 13:07:47;;;;;;;27.07;16.10;;;16.00;1.00;;;;;;5137171;27;20173;-65
2021/03/03 13:10:13;;;;;;;24.47;14.23;;;16.00;1.00;;;;;;5126086;27;20209;-65
2021/03/03 13:12:39;;;;;;;23.30;13.68;;;16.00;1.00;;;;;;5116354;28;20261;-64
2021/03/03 13:15:06;;;;;;;29.20;15.73;;;16.00;1.00;;;;;;5127553;27;20235;-63
2021/03/03 13:17:32;;;;;;;21.60;14.05;;;15.80;1.00;;;;;;5136561;27;20565;-63
2021/03/03 13:19:58;;;;;;;24.17;13.50;;;15.70;1.00;;;;;;5135566;27;20181;-64
2021/03/03 13:22:24;;;;;;;22.37;14.23;;;15.80;1.00;;;;;;5136489;27;20244;-63
2021/03/03 13:24:49;;;;;;;23.97;13.83;;;15.70;1.00;;;;;;5136471;27;20624;-64
2021/03/03 13:27:15;;;;;;;22.40;13.87;;;15.60;1.00;;;;;;5135748;27;20230;-64
2021/03/03 13:29:41;;;;;;;24.23;14.77;;;15.70;1.00;;;;;;5136767;27;20204;-67
2021/03/03 13:32:10;;;;;;;26.53;15.00;;;15.60;1.00;;;;;;5138853;27;20214;-68